createdAt,value
2023-01-22T00:01:23.662Z,214653.00
2023-01-22T00:07:25.779Z,214681.00
2023-01-22T00:13:28.751Z,214681.00
2023-01-22T00:19:30.853Z,214669.00
2023-01-22T00:25:33.270Z,214648.00
2023-01-22T00:31:35.634Z,214604.00
2023-01-22T00:37:38.136Z,214578.00
2023-01-22T00:43:41.142Z,214618.00
2023-01-22T00:49:43.413Z,214618.00
2023-01-22T00:55:59.023Z,214598.00
2023-01-22T01:02:01.207Z,214604.00
2023-01-22T01:08:03.389Z,214618.00
2023-01-22T01:14:05.693Z,214537.00
2023-01-22T01:20:08.239Z,214515.00
2023-01-22T01:26:13.365Z,214510.00
2023-01-22T01:32:15.429Z,214474.00
2023-01-22T01:38:17.435Z,214466.00
2023-01-22T01:44:22.460Z,214496.00
2023-01-22T01:50:27.147Z,214510.00
2023-01-22T01:56:33.337Z,214515.00
2023-01-22T02:02:35.583Z,214537.00
2023-01-22T02:08:38.231Z,214551.00
2023-01-22T02:14:43.335Z,214537.00
2023-01-22T02:20:53.817Z,214551.00
2023-01-22T02:26:56.074Z,214559.00
2023-01-22T02:32:58.568Z,214531.00
2023-01-22T02:39:01.081Z,214537.00
2023-01-22T02:45:03.685Z,214515.00
2023-01-22T02:51:06.679Z,214502.00
2023-01-22T02:57:09.089Z,214551.00
2023-01-22T03:03:15.878Z,214531.00
2023-01-22T03:09:19.343Z,214537.00
2023-01-22T03:15:43.140Z,214551.00
2023-01-22T03:21:46.078Z,214551.00
2023-01-22T03:28:06.702Z,214570.00
2023-01-22T03:34:11.074Z,214570.00
2023-01-22T03:40:13.369Z,214626.00
2023-01-22T03:46:20.308Z,214640.00
2023-01-22T03:52:27.663Z,214648.00
2023-01-22T03:58:31.198Z,214634.00
2023-01-22T04:04:33.695Z,214648.00
2023-01-22T04:10:37.656Z,214634.00
2023-01-22T04:16:40.146Z,214598.00
2023-01-22T04:22:42.253Z,214559.00
2023-01-22T04:28:46.754Z,214537.00
2023-01-22T04:34:49.822Z,214454.00
2023-01-22T04:41:14.920Z,214382.00
2023-01-22T04:47:18.513Z,214288.00
2023-01-22T04:53:21.381Z,214155.00
2023-01-22T04:59:24.085Z,214099.00
2023-01-22T05:05:27.065Z,214039.00
2023-01-22T05:11:29.292Z,214011.00
2023-01-22T05:17:37.123Z,213969.00
2023-01-22T05:23:39.456Z,213956.00
2023-01-22T05:29:42.786Z,214003.00
2023-01-22T05:36:14.441Z,213991.00
2023-01-22T05:48:27.659Z,213983.00
2023-01-22T05:54:34.481Z,214033.00
2023-01-22T06:00:37.771Z,214078.00
2023-01-22T06:06:44.316Z,214092.00
2023-01-22T06:12:46.869Z,214078.00
2023-01-22T06:18:49.700Z,214078.00
2023-01-22T06:24:52.995Z,214058.00
2023-01-22T06:31:07.971Z,214011.00
2023-01-22T06:37:12.221Z,213997.00
2023-01-22T06:43:15.535Z,213956.00
2023-01-22T06:49:18.068Z,213950.00
2023-01-22T06:55:20.149Z,213914.00
2023-01-22T07:01:22.884Z,213928.00
2023-01-22T07:07:25.426Z,213963.00
2023-01-22T07:13:27.657Z,214011.00
2023-01-22T07:19:29.912Z,214033.00
2023-01-22T07:25:32.529Z,214052.00
2023-01-22T07:31:35.042Z,214052.00
2023-01-22T07:37:37.448Z,214078.00
2023-01-22T07:43:39.556Z,214092.00
2023-01-22T07:49:42.066Z,214099.00
2023-01-22T07:55:44.805Z,214072.00
2023-01-22T08:01:47.009Z,214163.00
2023-01-22T08:07:49.550Z,214260.00
2023-01-22T08:13:51.898Z,214321.00
2023-01-22T08:19:54.205Z,214321.00
2023-01-22T08:26:01.102Z,214537.00
2023-01-22T08:32:03.638Z,214545.00
2023-01-22T08:38:05.812Z,214515.00
2023-01-22T08:44:12.024Z,214515.00
2023-01-22T08:50:14.979Z,214626.00
2023-01-22T08:56:17.512Z,214634.00
2023-01-22T09:02:19.852Z,214604.00
2023-01-22T09:08:22.126Z,214779.00
2023-01-22T09:14:24.254Z,214952.00
2023-01-22T09:20:26.473Z,214940.00
2023-01-22T09:26:28.740Z,214966.00
2023-01-22T09:32:30.971Z,214980.00
2023-01-22T09:38:33.176Z,215052.00
2023-01-22T09:44:42.683Z,215066.00
2023-01-22T09:50:45.874Z,215154.00
2023-01-22T09:56:51.876Z,215385.00
2023-01-22T10:03:02.984Z,215929.00
2023-01-22T10:09:11.063Z,216100.00
2023-01-22T10:15:17.443Z,216191.00
2023-01-22T10:21:21.292Z,216147.00
2023-01-22T10:27:33.584Z,216064.00
2023-01-22T10:33:39.166Z,216238.00
2023-01-22T10:39:43.451Z,216442.00
2023-01-22T10:45:57.044Z,216529.00
2023-01-22T10:52:03.259Z,216529.00
2023-01-22T10:58:14.367Z,216472.00
2023-01-22T11:04:29.371Z,216521.00
2023-01-22T11:10:58.305Z,216543.00
2023-01-22T11:17:20.396Z,216535.00
2023-01-22T11:23:28.179Z,216521.00
2023-01-22T11:29:42.323Z,216499.00
2023-01-22T11:36:00.016Z,216485.00
2023-01-22T11:42:26.995Z,216549.00
2023-01-22T11:48:40.795Z,216543.00
2023-01-22T11:54:43.107Z,216620.00
2023-01-22T12:00:54.794Z,216711.00
2023-01-22T12:07:10.155Z,216725.00
2023-01-22T12:13:33.176Z,216768.00
2023-01-22T12:19:38.139Z,216725.00
2023-01-22T12:25:49.404Z,216761.00
2023-01-22T12:31:56.827Z,216733.00
2023-01-22T12:38:12.555Z,216653.00
2023-01-22T12:44:28.064Z,216628.00
2023-01-22T12:50:30.576Z,216585.00
2023-01-22T12:56:33.498Z,216499.00
2023-01-22T13:02:36.398Z,216268.00
2023-01-22T13:08:42.034Z,216240.00
2023-01-22T13:14:44.292Z,216149.00
2023-01-22T13:20:53.468Z,216224.00
2023-01-22T13:27:01.194Z,216302.00
2023-01-22T13:33:08.148Z,216240.00
2023-01-22T13:39:21.479Z,216224.00
2023-01-22T13:45:26.495Z,216210.00
2023-01-22T13:51:29.370Z,216224.00
2023-01-22T13:57:31.827Z,216114.00
2023-01-22T14:03:34.368Z,216064.00
2023-01-22T14:09:40.204Z,216015.00
2023-01-22T14:15:42.860Z,215943.00
2023-01-22T14:21:45.085Z,215909.00
2023-01-22T14:27:49.041Z,215847.00
2023-01-22T14:33:51.214Z,215833.00
2023-01-22T14:39:53.443Z,215777.00
2023-01-22T14:45:55.964Z,215720.00
2023-01-22T14:51:58.362Z,215656.00
2023-01-22T14:58:00.650Z,215615.00
2023-01-22T15:04:06.934Z,215552.00
2023-01-22T15:10:09.858Z,215496.00
2023-01-22T15:16:12.517Z,215455.00
2023-01-22T15:22:15.542Z,215413.00
2023-01-22T15:28:17.890Z,215377.00
2023-01-22T15:34:20.006Z,215355.00
2023-01-22T15:40:22.319Z,215337.00
2023-01-22T15:46:26.027Z,215323.00
2023-01-22T15:52:28.386Z,215295.00
2023-01-22T15:58:32.153Z,215261.00
2023-01-22T16:04:34.505Z,215217.00
2023-01-22T16:10:36.684Z,215225.00
2023-01-22T16:16:42.104Z,215217.00
2023-01-22T16:22:47.411Z,215182.00
2023-01-22T16:28:51.658Z,215162.00
2023-01-22T16:34:53.751Z,215120.00
2023-01-22T16:41:25.041Z,215112.00
2023-01-22T16:47:27.884Z,215092.00
2023-01-22T16:53:30.375Z,215098.00
2023-01-22T16:59:34.971Z,215052.00
2023-01-22T17:05:37.719Z,215016.00
2023-01-22T17:11:40.295Z,214958.00
2023-01-22T17:17:42.534Z,214905.00
2023-01-22T17:23:45.240Z,214827.00
2023-01-22T17:29:47.560Z,214773.00
2023-01-22T17:35:49.665Z,214695.00
2023-01-22T17:41:52.123Z,214626.00
2023-01-22T17:47:54.285Z,214502.00
2023-01-22T17:53:59.513Z,214424.00
2023-01-22T18:00:01.624Z,214355.00
2023-01-22T18:06:10.846Z,214296.00
2023-01-22T18:12:13.715Z,214280.00
2023-01-22T18:18:16.679Z,214260.00
2023-01-22T18:24:23.131Z,214225.00
2023-01-22T18:30:27.042Z,214099.00
2023-01-22T18:36:32.822Z,214003.00
2023-01-22T18:42:35.122Z,213942.00
2023-01-22T18:48:38.102Z,213934.00
2023-01-22T18:54:40.615Z,213894.00
2023-01-22T19:00:42.648Z,213816.00
2023-01-22T19:06:48.316Z,213797.00
2023-01-22T19:12:50.967Z,213797.00
2023-01-22T19:18:58.803Z,213776.00
2023-01-22T19:25:03.244Z,213742.00
2023-01-22T19:31:14.514Z,213720.00
2023-01-22T19:37:16.550Z,213694.00
2023-01-22T19:43:19.961Z,213694.00
2023-01-22T19:49:22.250Z,213700.00
2023-01-22T19:55:26.777Z,213667.00
2023-01-22T20:01:29.756Z,213645.00
2023-01-22T20:07:34.007Z,213611.00
2023-01-22T20:13:37.854Z,213611.00
2023-01-22T20:19:40.443Z,213595.00
2023-01-22T20:25:42.589Z,213595.00
2023-01-22T20:31:45.055Z,213547.00
2023-01-22T20:37:47.757Z,213517.00
2023-01-22T20:43:49.941Z,213501.00
2023-01-22T20:49:51.998Z,213501.00
2023-01-22T20:56:02.693Z,213445.00
2023-01-22T21:02:04.867Z,213390.00
2023-01-22T21:08:07.326Z,213336.00
2023-01-22T21:14:15.870Z,213328.00
2023-01-22T21:20:18.526Z,213278.00
2023-01-22T21:26:23.099Z,213278.00
2023-01-22T21:32:25.358Z,213226.00
2023-01-22T21:38:28.561Z,213200.00
2023-01-22T21:44:49.180Z,213170.00
2023-01-22T21:50:51.713Z,213131.00
2023-01-22T21:56:54.359Z,213053.00
2023-01-22T22:02:56.447Z,213095.00
2023-01-22T22:09:01.285Z,213033.00
2023-01-22T22:15:04.848Z,213011.00
2023-01-22T22:21:08.455Z,212967.00
2023-01-22T22:27:10.997Z,212959.00
2023-01-22T22:33:13.278Z,212903.00
2023-01-22T22:39:15.665Z,212842.00
2023-01-22T22:45:17.992Z,212788.00
2023-01-22T22:51:26.272Z,212816.00
2023-01-22T22:57:28.861Z,212774.00
2023-01-22T23:03:33.376Z,212590.00
2023-01-22T23:09:35.715Z,212493.00
2023-01-22T23:15:38.155Z,212317.00
2023-01-22T23:21:41.845Z,212174.00
2023-01-22T23:27:45.007Z,212092.00
2023-01-22T23:33:47.142Z,216054.00
2023-01-22T23:39:51.604Z,216013.00
2023-01-22T23:45:53.889Z,215959.00
2023-01-22T23:51:56.030Z,215870.00
2023-01-22T23:57:58.304Z,215836.00
